Cushing, Minnesota
Current Conditions -  °F | °C
As of 6:58 AM on Friday 19 Dec 2014 (Local Time) from KLXL Reporting Station
Overcast Overcast  
Wind Chill: 12°   Ceiling: 1000
Heat Index: 21°   Visibility: 7mi
Dew Point: 18°   Wind: 8mph
Humidity: 86%   Direction: 130°SE
Pressure: 30.19"   Gusts: NA
Location:  46.14°N, 94.58°W
Report Text: KLXL 191258Z AUTO 13007KT 7SM OVC010 M06/M08 A3019 RMK AO2
Loading
Personal Weather Stations






























Interactive Weather Map New forecast layout! Learn more

10-Day Weather Forecast

Advertisements
Track Severe Weather on mobile